Main page
METAR-TAF:

METAR-TAF

Airports :

Nawabshah, Pakistan

Nawabshah Airport

latitude: 26-15N, longitude: 068-22E, elevation: 37 m

Current weather observation

The report was made 59 minutes ago, at 10:00 UTC
Wind 10 kt from the Northwest
Temperature 19°C
Humidity 52%
Pressure
Scattered clouds at a height of 3500 ft
Scattered clouds at a height of 10000 ft
smoke

METAR: OPNH 181000Z 31510KT 3000M FU SCT035 SCT100 19/09 Q.1022 NOSIG

Time: 15:59 (10:59 UTC)

Forecast

The report was made 7 hours and 29 minutes ago, at 03:30 UTC
Forecast valid from 18 at 06 UTC to 18 at 15 UTC
Wind 5 kt from the North with gusts up to 15 kt
Visibility: 4000 m
Few clouds at a height of 4000 ft
Scattered clouds at a height of 10000 ft
haze

TAF: OPNH 180330Z 1806/1815 36005G15KT 4000 HZ FEW040 SCT100

Weather observations and forecasts of more than 4000 airports (METAR and TAF reports).

The available stations are represented by yellow and red dots on the map.

Hover mouse over dot to see the name of the station.

Then click to see weather observations and forecasts.

To change the map : click on the green buttons with a black cross to zoom in, on the green button with a dash to zoom out, or on the green arrows for adjacent maps.


METAR-TAF: